Time;durP1;ratioP1;P1;durP2;ratioP2;P2;SDS_P1;SDS_P2;PMS_P1;PMS_P2;Temp;Humidity;BMP_temperature;BMP_pressure;BME280_temperature;BME280_humidity;BME280_pressure;Samples;Min_cycle;Max_cycle;Signal;HPM_P1;HPM_P2
2021/04/27 00:02:18;;;;;;;11.52;4.20;;;;;;;9.85;41.31;101345.75;4945637;28;123384;-71
2021/04/27 00:04:45;;;;;;;9.35;3.92;;;;;;;9.81;41.50;101344.09;4947774;28;124688;-71
2021/04/27 00:07:11;;;;;;;11.07;4.15;;;;;;;9.76;41.19;101340.78;4915224;28;114081;-71
2021/04/27 00:09:38;;;;;;;11.32;3.75;;;;;;;9.72;41.58;101336.50;4931056;28;112197;-72
2021/04/27 00:12:06;;;;;;;10.13;4.28;;;;;;;9.68;41.63;101345.44;4945515;28;124180;-71
2021/04/27 00:14:33;;;;;;;7.05;3.88;;;;;;;9.63;41.79;101332.38;4948177;28;123177;-71
2021/04/27 00:16:59;;;;;;;7.25;4.07;;;;;;;9.60;41.83;101331.63;4921498;28;113257;-71
2021/04/27 00:19:26;;;;;;;5.88;4.32;;;;;;;9.59;41.82;101329.88;4935335;28;114593;-71
2021/04/27 00:21:53;;;;;;;12.45;4.00;;;;;;;9.55;41.67;101330.00;4897624;28;123546;-72
2021/04/27 00:24:20;;;;;;;7.40;3.90;;;;;;;9.54;42.13;101332.69;4933508;28;123074;-71
2021/04/27 00:26:47;;;;;;;7.43;4.30;;;;;;;9.51;41.94;101323.09;4944524;28;114531;-71
2021/04/27 00:29:14;;;;;;;7.50;4.30;;;;;;;9.50;41.96;101316.06;4946577;28;115794;-71
2021/04/27 00:31:41;;;;;;;5.32;3.67;;;;;;;9.47;42.32;101316.13;4947414;28;124968;-72
2021/04/27 00:34:07;;;;;;;7.35;4.03;;;;;;;9.43;42.20;101314.53;4950581;28;123598;-71
2021/04/27 00:36:34;;;;;;;8.35;3.90;;;;;;;9.40;42.25;101309.34;4950973;28;114473;-71
2021/04/27 00:39:01;;;;;;;7.35;4.05;;;;;;;9.39;42.32;101309.41;4929912;28;112027;-72
2021/04/27 00:41:28;;;;;;;10.70;4.07;;;;;;;9.35;41.85;101312.13;4922001;28;123137;-72
2021/04/27 00:43:55;;;;;;;5.53;3.60;;;;;;;9.35;42.24;101308.63;4938247;28;124185;-71
2021/04/27 00:46:21;;;;;;;6.80;4.13;;;;;;;9.33;42.06;101303.38;4937882;28;114693;-72
2021/04/27 00:48:48;;;;;;;7.65;3.95;;;;;;;9.29;42.29;101295.63;4919604;28;113526;-71
2021/04/27 00:51:15;;;;;;;10.57;4.20;;;;;;;9.26;42.49;101303.63;4936961;28;123765;-71
2021/04/27 00:53:41;;;;;;;9.00;4.40;;;;;;;9.22;42.93;101294.09;4922492;28;124284;-72
2021/04/27 00:56:08;;;;;;;10.02;4.72;;;;;;;9.17;42.73;101296.84;4919055;28;113988;-72
2021/04/27 00:58:35;;;;;;;12.85;4.25;;;;;;;9.13;42.56;101289.94;4937585;28;114290;-71
2021/04/27 01:01:02;;;;;;;12.65;4.63;;;;;;;9.08;42.97;101292.75;4936491;28;124648;-71
2021/04/27 01:03:29;;;;;;;7.72;3.83;;;;;;;9.06;42.98;101294.56;4903454;28;122938;-71
2021/04/27 01:05:56;;;;;;;9.88;3.97;;;;;;;9.03;42.91;101294.66;4936225;28;114426;-71
2021/04/27 01:08:34;;;;;;;9.68;4.28;;;;;;;9.01;42.98;101291.19;4920187;28;112215;-71
2021/04/27 01:11:26;;;;;;;8.77;4.00;;;;;;;8.99;43.09;101281.59;4933491;28;123491;-72
2021/04/27 01:14:03;;;;;;;8.35;4.13;;;;;;;8.94;42.81;101277.31;4918777;28;123042;-71
2021/04/27 01:16:32;;;;;;;8.45;4.13;;;;;;;8.93;42.74;101277.38;4903890;28;114748;-71
2021/04/27 01:19:00;;;;;;;11.88;4.60;;;;;;;8.91;43.24;101273.91;4936478;28;115262;-71
2021/04/27 01:21:28;;;;;;;14.98;4.10;;;;;;;8.88;42.77;101268.72;4936974;28;123721;-71
2021/04/27 01:24:13;;;;;;;6.47;4.10;;;;;;;8.83;43.27;101270.63;4936194;28;124105;-72
2021/04/27 01:27:03;;;;;;;7.82;4.15;;;;;;;8.75;43.45;101263.81;4916072;28;113219;-71
2021/04/27 01:29:33;;;;;;;6.40;3.83;;;;;;;8.69;43.49;101263.16;4916687;28;113614;-71
2021/04/27 01:32:03;;;;;;;7.90;3.80;;;;;;;8.63;43.65;101256.28;4918755;28;122935;-71
2021/04/27 01:34:34;;;;;;;8.75;3.97;;;;;;;8.59;43.85;101257.28;4917676;28;123271;-71
2021/04/27 01:37:08;;;;;;;6.07;4.22;;;;;;;8.56;43.57;101258.22;4918073;28;113416;-71
2021/04/27 01:39:36;;;;;;;7.20;4.22;;;;;;;8.55;43.88;101258.25;4918315;28;114582;-71
2021/04/27 01:42:05;;;;;;;12.15;4.57;;;;;;;8.52;43.87;101251.31;4898692;28;123277;-71
2021/04/27 01:44:35;;;;;;;10.95;4.82;;;;;;;8.51;43.54;101248.72;4929370;28;124039;-71
2021/04/27 01:47:03;;;;;;;9.25;4.30;;;;;;;8.50;43.63;101239.94;4932103;28;113756;-71
2021/04/27 01:49:30;;;;;;;8.68;4.25;;;;;;;8.49;43.86;101240.84;4935887;28;114201;-71
2021/04/27 01:52:37;;;;;;;8.35;4.03;;;;;;;8.47;43.70;101247.09;4877155;28;124646;-71
2021/04/27 01:55:07;;;;;;;7.13;3.97;;;;;;;8.44;43.98;101247.16;4891568;28;123191;-71
2021/04/27 01:57:36;;;;;;;8.07;4.15;;;;;;;8.41;43.77;101245.47;4894239;28;113140;-72
2021/04/27 02:00:06;;;;;;;6.30;4.20;;;;;;;8.38;44.23;101259.63;4931808;28;113492;-72
2021/04/27 02:02:48;;;;;;;11.13;4.70;;;;;;;8.34;43.76;101244.78;4917115;28;123020;-71
2021/04/27 02:05:33;;;;;;;8.75;4.28;;;;;;;8.30;44.12;101250.19;4934405;28;125262;-72
2021/04/27 02:08:03;;;;;;;5.70;4.30;;;;;;;8.24;44.54;101240.66;4934608;28;115422;-71
2021/04/27 02:10:34;;;;;;;9.05;4.95;;;;;;;8.18;44.84;101238.22;4913295;28;113193;-71
2021/04/27 02:13:10;;;;;;;8.80;4.50;;;;;;;8.11;44.61;101239.28;4908549;28;123163;-71
2021/04/27 02:15:41;;;;;;;7.72;4.90;;;;;;;8.08;44.63;101228.81;4916780;28;123160;-71
2021/04/27 02:18:29;;;;;;;7.22;4.38;;;;;;;8.03;45.01;101225.47;4901609;28;113873;-71
2021/04/27 02:21:00;;;;;;;8.15;4.88;;;;;;;7.98;45.05;101229.06;4916849;28;113828;-71
2021/04/27 02:23:46;;;;;;;7.00;4.72;;;;;;;7.94;45.22;101227.44;4934207;28;124852;-71
2021/04/27 02:26:17;;;;;;;9.15;4.32;;;;;;;7.89;45.37;101224.09;4917718;28;124000;-71
2021/04/27 02:28:51;;;;;;;8.40;4.35;;;;;;;7.86;45.16;101224.16;4916886;28;113935;-71
2021/04/27 02:31:19;;;;;;;7.43;4.47;;;;;;;7.84;45.56;101215.44;4929790;28;113087;-71
2021/04/27 02:33:47;;;;;;;8.85;4.75;;;;;;;7.84;45.05;101210.16;4916413;28;124275;-71
2021/04/27 02:36:14;;;;;;;10.20;4.63;;;;;;;7.85;45.22;101205.75;4915647;28;123156;-71
2021/04/27 02:38:51;;;;;;;8.75;4.63;;;;;;;7.85;45.18;101213.66;4916521;28;114605;-71
2021/04/27 02:41:20;;;;;;;11.30;4.20;;;;;;;7.84;45.24;101210.16;4916294;28;113628;-71
2021/04/27 02:43:47;;;;;;;14.43;4.68;;;;;;;7.84;44.82;101204.88;4934192;28;124159;-71
2021/04/27 02:46:14;;;;;;;11.48;4.75;;;;;;;7.82;45.03;101217.25;4932901;28;124195;-71
2021/04/27 02:48:51;;;;;;;8.88;4.50;;;;;;;7.80;44.89;101208.50;4930908;28;114803;-71
2021/04/27 02:51:22;;;;;;;7.97;4.38;;;;;;;7.79;45.24;101214.69;4916897;28;113145;-72
2021/04/27 02:54:03;;;;;;;10.20;4.40;;;;;;;7.76;45.03;101206.84;4916962;28;123504;-72
2021/04/27 02:56:31;;;;;;;8.35;4.38;;;;;;;7.73;45.37;101206.94;4915078;28;123527;-71
2021/04/27 02:58:59;;;;;;;6.40;4.60;;;;;;;7.71;45.32;101203.50;4915973;28;114885;-71
2021/04/27 03:01:27;;;;;;;9.32;5.18;;;;;;;7.68;45.49;101206.19;4916161;28;114645;-71
2021/04/27 03:03:55;;;;;;;6.57;4.63;;;;;;;7.66;45.25;101200.09;4906478;28;123517;-71
2021/04/27 03:06:28;;;;;;;8.60;4.53;;;;;;;7.65;45.27;101203.63;4915485;28;123460;-72
2021/04/27 03:09:11;;;;;;;7.82;4.63;;;;;;;7.63;45.51;101200.19;4912848;28;113893;-71
2021/04/27 03:11:41;;;;;;;8.55;5.03;;;;;;;7.62;45.43;101199.31;4903718;28;114676;-71
2021/04/27 03:14:08;;;;;;;8.48;4.85;;;;;;;7.62;45.23;101193.19;4933094;28;124520;-71
2021/04/27 03:16:37;;;;;;;12.00;4.90;;;;;;;7.60;45.42;101201.13;4916310;28;122393;-71
2021/04/27 03:19:05;;;;;;;9.65;4.85;;;;;;;7.59;45.43;101195.00;4915524;28;114131;-71
2021/04/27 03:21:37;;;;;;;11.07;4.82;;;;;;;7.58;45.35;101188.00;4913287;28;113585;-72
2021/04/27 03:24:04;;;;;;;7.43;5.05;;;;;;;7.57;45.50;101196.81;4915351;28;124352;-71
2021/04/27 03:26:31;;;;;;;9.05;4.85;;;;;;;7.57;45.33;101188.03;4933229;28;123997;-71
2021/04/27 03:29:14;;;;;;;9.60;4.95;;;;;;;7.55;45.52;101188.09;4911735;28;114206;-71
2021/04/27 03:31:47;;;;;;;8.10;5.05;;;;;;;7.54;45.53;101186.34;4895661;28;113822;-73
2021/04/27 03:34:14;;;;;;;9.60;4.85;;;;;;;7.51;45.16;101183.78;4926208;28;123223;-71
2021/04/27 03:36:40;;;;;;;10.07;5.40;;;;;;;7.50;45.41;101179.44;4931239;28;122903;-71
2021/04/27 03:39:07;;;;;;;8.32;4.78;;;;;;;7.49;45.61;101182.97;4933053;28;114140;-72
2021/04/27 03:41:34;;;;;;;10.80;5.22;;;;;;;7.45;45.82;101181.31;4912781;28;113065;-72
2021/04/27 03:44:01;;;;;;;7.47;5.03;;;;;;;7.42;46.08;101186.66;4915564;28;123426;-72
2021/04/27 03:46:29;;;;;;;7.93;4.88;;;;;;;7.39;46.18;101186.75;4922688;23;123318;-65
2021/04/27 03:48:57;;;;;;;9.18;5.35;;;;;;;7.35;46.12;101179.84;4876321;28;114449;-65
2021/04/27 03:51:25;;;;;;;8.48;5.40;;;;;;;7.32;46.22;101182.56;4896973;28;114044;-65
2021/04/27 03:54:11;;;;;;;10.15;5.13;;;;;;;7.28;46.34;101175.66;4902805;28;124174;-65
2021/04/27 03:56:40;;;;;;;10.95;5.25;;;;;;;7.23;46.19;101175.75;4901121;28;124774;-65
2021/04/27 03:59:10;;;;;;;9.27;5.40;;;;;;;7.19;46.39;101174.09;4910797;28;114488;-65
2021/04/27 04:01:37;;;;;;;11.35;5.47;;;;;;;7.15;46.55;101173.31;4911577;28;114656;-65
2021/04/27 04:04:04;;;;;;;11.38;5.43;;;;;;;7.12;46.78;101173.41;4887557;28;123477;-65
2021/04/27 04:06:32;;;;;;;8.43;5.28;;;;;;;7.11;46.78;101174.28;4895771;28;124659;-64
2021/04/27 04:09:07;;;;;;;9.65;5.55;;;;;;;7.08;46.67;101177.00;4912660;28;115172;-65
2021/04/27 04:12:05;;;;;;;10.57;5.70;;;;;;;7.08;46.61;101177.00;4892831;28;113349;-65
2021/04/27 04:14:31;;;;;;;9.50;5.35;;;;;;;7.08;46.52;101170.88;4892141;28;123143;-65
2021/04/27 04:17:06;;;;;;;9.17;5.50;;;;;;;7.08;46.38;101178.78;4893307;28;126260;-65
2021/04/27 04:19:35;;;;;;;15.32;5.78;;;;;;;7.07;46.43;101175.28;4892683;28;113567;-65
2021/04/27 04:22:05;;;;;;;9.10;5.50;;;;;;;7.08;46.29;101173.50;4896729;28;113542;-65
2021/04/27 04:24:39;;;;;;;11.70;4.97;;;;;;;7.07;46.23;101164.75;4892157;28;126724;-65
2021/04/27 04:27:06;;;;;;;11.15;6.18;;;;;;;7.06;46.51;101165.63;4890338;28;123011;-65
2021/04/27 04:29:43;;;;;;;14.35;5.80;;;;;;;7.05;46.57;101163.94;4908517;28;114489;-65
2021/04/27 04:32:28;;;;;;;15.53;5.60;;;;;;;7.03;46.59;101168.38;4907769;28;114558;-65
2021/04/27 04:35:15;;;;;;;11.73;6.03;;;;;;;7.00;46.70;101173.69;4909013;28;125020;-65
2021/04/27 04:38:01;;;;;;;10.68;5.60;;;;;;;6.96;46.51;101169.41;4898612;28;125172;-65
2021/04/27 04:40:46;;;;;;;10.38;5.85;;;;;;;6.92;46.85;101170.41;4913223;28;115611;-65
2021/04/27 04:43:42;;;;;;;8.95;5.60;;;;;;;6.89;46.76;101171.31;4871126;28;115586;-66
2021/04/27 04:46:27;;;;;;;7.55;5.57;;;;;;;6.90;46.79;101177.47;4897131;28;124517;-65
2021/04/27 04:49:13;;;;;;;9.23;5.33;;;;;;;6.89;46.78;101181.84;4913467;28;124802;-66
2021/04/27 04:51:58;;;;;;;10.40;5.97;;;;;;;6.88;46.78;101184.56;4903478;28;115231;-65
2021/04/27 04:54:48;;;;;;;9.25;5.65;;;;;;;6.87;46.89;101178.41;4896397;28;113152;-66
2021/04/27 04:57:47;;;;;;;9.57;5.53;;;;;;;6.87;46.83;101180.19;4903738;28;124178;-66
2021/04/27 05:00:18;;;;;;;9.07;5.88;;;;;;;6.88;47.18;101179.28;4880773;28;123057;-65
2021/04/27 05:03:01;;;;;;;8.68;5.50;;;;;;;6.88;47.23;101181.91;4899353;28;114575;-66
2021/04/27 05:05:47;;;;;;;12.38;6.25;;;;;;;6.88;47.27;101184.56;4898653;28;114941;-66
2021/04/27 05:08:42;;;;;;;8.98;5.90;;;;;;;6.87;47.36;101185.44;4910251;28;124832;-66
2021/04/27 05:11:28;;;;;;;8.87;5.73;;;;;;;6.87;47.51;101178.41;4899313;28;124750;-66
2021/04/27 05:13:59;;;;;;;8.73;6.20;;;;;;;6.88;47.73;101179.28;4880363;28;113556;-66
2021/04/27 05:16:27;;;;;;;11.88;5.90;;;;;;;6.88;47.51;101174.03;4907684;28;113976;-66
2021/04/27 05:18:54;;;;;;;9.02;5.93;;;;;;;6.91;47.82;101173.94;4906483;28;124595;-65
2021/04/27 05:21:23;;;;;;;10.93;6.07;;;;;;;6.92;47.79;101173.03;4888949;28;124087;-66
2021/04/27 05:23:49;;;;;;;8.10;6.15;;;;;;;6.94;47.97;101179.13;4895101;28;114094;-65
2021/04/27 05:26:17;;;;;;;7.82;5.50;;;;;;;6.97;47.72;101173.81;4899328;28;113203;-65
2021/04/27 05:28:44;;;;;;;8.25;5.85;;;;;;;6.99;47.77;101172.00;4898413;28;124059;-65
2021/04/27 05:31:11;;;;;;;11.45;6.00;;;;;;;7.02;47.92;101172.75;4914105;28;124256;-65
2021/04/27 05:33:38;;;;;;;11.02;6.38;;;;;;;7.05;48.07;101177.09;4883071;28;114763;-66
2021/04/27 05:36:05;;;;;;;10.07;6.22;;;;;;;7.09;48.35;101183.16;4899138;28;114193;-65
2021/04/27 05:38:32;;;;;;;9.63;5.53;;;;;;;7.13;48.29;101174.25;4908331;28;124046;-65
2021/04/27 05:40:58;;;;;;;7.97;6.38;;;;;;;7.17;48.35;101182.03;4899152;28;122947;-65
2021/04/27 05:43:25;;;;;;;10.20;6.28;;;;;;;7.23;48.25;101173.13;4898980;28;113254;-65
2021/04/27 05:45:52;;;;;;;10.73;6.47;;;;;;;7.31;48.41;101183.44;4914661;28;113859;-65
2021/04/27 05:48:19;;;;;;;8.18;5.75;;;;;;;7.36;48.49;101176.28;4897422;28;124140;-66
2021/04/27 05:50:45;;;;;;;15.82;6.65;;;;;;;7.43;48.57;101172.59;4914088;28;124366;-65
2021/04/27 05:53:12;;;;;;;9.20;6.40;;;;;;;7.53;48.52;101174.06;4912634;28;113360;-66
2021/04/27 05:55:40;;;;;;;10.73;6.60;;;;;;;7.63;48.69;101179.09;4875101;28;113924;-65
2021/04/27 05:58:08;;;;;;;11.15;7.15;;;;;;;7.74;48.95;101171.75;4910197;28;124666;-63
2021/04/27 06:00:37;;;;;;;11.35;6.47;;;;;;;7.86;48.89;101166.16;4896476;28;124646;-63
2021/04/27 06:03:23;;;;;;;11.02;6.53;;;;;;;7.99;48.61;101162.25;4899591;28;113410;-64
2021/04/27 06:05:50;;;;;;;10.48;6.40;;;;;;;8.11;48.36;101165.44;4913671;28;114672;-64
2021/04/27 06:08:17;;;;;;;8.98;6.28;;;;;;;8.23;48.47;101169.47;4912396;28;124022;-63
2021/04/27 06:10:44;;;;;;;11.43;6.47;;;;;;;8.34;48.27;101162.97;4912630;28;124032;-63
2021/04/27 06:13:11;;;;;;;11.48;6.32;;;;;;;8.47;48.20;101165.25;4896896;28;114582;-64
2021/04/27 06:15:38;;;;;;;11.57;6.35;;;;;;;8.58;48.21;101165.78;4914775;28;114137;-64
2021/04/27 06:18:04;;;;;;;9.82;6.35;;;;;;;8.74;48.12;101174.94;4912570;28;124377;-64
2021/04/27 06:20:31;;;;;;;8.68;6.43;;;;;;;8.91;47.86;101168.22;4895266;28;123986;-63
2021/04/27 06:22:59;;;;;;;9.77;6.88;;;;;;;9.06;47.78;101173.03;4912717;28;115293;-64
2021/04/27 06:25:26;;;;;;;8.25;6.45;;;;;;;9.25;47.45;101177.69;4890057;28;114981;-66
2021/04/27 06:27:52;;;;;;;8.05;5.40;;;;;;;9.42;47.02;101169.16;4878591;28;123183;-66
2021/04/27 06:30:20;;;;;;;9.20;5.85;;;;;;;9.60;47.24;101172.94;4893163;28;123686;-66
2021/04/27 06:32:48;;;;;;;10.25;6.00;;;;;;;9.78;47.10;101177.59;4914302;28;114420;-65
2021/04/27 06:35:14;;;;;;;9.93;6.00;;;;;;;9.96;46.77;101175.19;4896173;28;113677;-64
2021/04/27 06:37:42;;;;;;;8.45;5.55;;;;;;;10.12;46.16;101165.75;4897352;28;123884;-63
2021/04/27 06:40:09;;;;;;;9.75;5.20;;;;;;;10.30;45.74;101165.09;4912912;28;124909;-63
2021/04/27 06:42:36;;;;;;;9.13;5.90;;;;;;;10.48;45.72;101167.91;4912426;28;114470;-63
2021/04/27 06:45:03;;;;;;;9.23;5.43;;;;;;;10.66;45.64;101172.50;4905550;28;114249;-63
2021/04/27 06:47:30;;;;;;;8.32;5.15;;;;;;;10.88;45.10;101171.63;4913901;28;123911;-64
2021/04/27 06:49:58;;;;;;;10.75;5.72;;;;;;;11.08;44.20;101162.84;4912675;28;123797;-63
2021/04/27 06:52:25;;;;;;;12.02;5.15;;;;;;;11.28;44.33;101159.31;4898269;28;113301;-63
2021/04/27 06:54:52;;;;;;;8.55;4.88;;;;;;;11.49;43.66;101155.75;4912527;28;114328;-63
2021/04/27 06:57:19;;;;;;;8.93;5.20;;;;;;;11.73;43.44;101155.59;4897727;28;122900;-65
2021/04/27 06:59:45;;;;;;;9.23;4.80;;;;;;;11.92;42.79;101149.47;4897444;28;123517;-66
2021/04/27 07:02:12;;;;;;;8.15;4.82;;;;;;;12.11;42.41;101158.34;4912233;28;114098;-64
2021/04/27 07:04:42;;;;;;;7.82;5.00;;;;;;;12.32;42.08;101147.63;4896069;28;113159;-64
2021/04/27 07:07:09;;;;;;;9.15;4.70;;;;;;;12.54;41.61;101148.31;4904619;28;124347;-64
2021/04/27 07:09:36;;;;;;;9.90;5.00;;;;;;;12.76;41.21;101147.28;4895900;28;123754;-64
2021/04/27 07:12:03;;;;;;;8.55;4.63;;;;;;;12.94;40.88;101146.38;4894561;28;115734;-63
2021/04/27 07:14:31;;;;;;;7.68;4.10;;;;;;;13.12;40.15;101146.38;4912680;28;116124;-66
2021/04/27 07:16:57;;;;;;;5.63;3.90;;;;;;;13.27;39.57;101148.25;4896829;28;124115;-62
2021/04/27 07:19:25;;;;;;;7.22;4.03;;;;;;;13.41;39.07;101150.22;4890614;28;123363;-63
2021/04/27 07:21:52;;;;;;;6.47;4.10;;;;;;;13.48;38.37;101156.09;4897870;28;113159;-62
2021/04/27 07:24:20;;;;;;;8.35;4.05;;;;;;;13.52;38.43;101152.31;4912796;28;114345;-62
2021/04/27 07:26:47;;;;;;;8.90;4.00;;;;;;;13.55;38.06;101149.50;4904723;28;124190;-62
2021/04/27 07:29:14;;;;;;;5.35;3.85;;;;;;;13.59;38.03;101145.75;4894448;28;124485;-63
2021/04/27 07:31:42;;;;;;;6.65;4.05;;;;;;;13.65;37.87;101137.41;4912368;28;114665;-63
2021/04/27 07:34:10;;;;;;;9.48;3.97;;;;;;;13.76;38.20;101135.03;4911650;28;113894;-64
2021/04/27 07:36:37;;;;;;;6.85;4.22;;;;;;;13.93;37.93;101131.47;4896817;28;123887;-62
2021/04/27 07:39:06;;;;;;;8.25;3.92;;;;;;;14.08;37.22;101135.09;4911172;28;123829;-63
2021/04/27 07:41:34;;;;;;;7.97;4.03;;;;;;;14.19;36.83;101127.38;4910229;28;114821;-63
2021/04/27 07:44:01;;;;;;;8.15;3.90;;;;;;;14.33;36.76;101128.41;4894983;28;113791;-63
2021/04/27 07:46:29;;;;;;;10.00;4.53;;;;;;;14.44;36.16;101126.00;4913121;28;124804;-63
2021/04/27 07:48:56;;;;;;;6.70;3.58;;;;;;;14.56;35.82;101124.44;4909330;28;123919;-63
2021/04/27 07:51:24;;;;;;;9.38;3.90;;;;;;;14.63;35.31;101114.31;4895915;28;114361;-63
2021/04/27 07:53:51;;;;;;;8.18;3.72;;;;;;;14.71;35.39;101118.28;4904201;28;114103;-63
2021/04/27 07:56:17;;;;;;;6.32;3.90;;;;;;;14.82;35.42;101114.09;4909339;28;124070;-63
2021/04/27 07:58:44;;;;;;;6.28;4.10;;;;;;;14.94;34.79;101111.59;4911933;28;124364;-63
2021/04/27 08:01:11;;;;;;;5.53;3.47;;;;;;;15.05;34.31;101107.41;4914090;28;115124;-65
2021/04/27 08:03:38;;;;;;;7.30;3.72;;;;;;;15.15;34.29;101105.91;4905768;28;115188;-65
2021/04/27 08:06:05;;;;;;;7.38;3.55;;;;;;;15.27;34.42;101109.66;4897818;28;124386;-64
2021/04/27 08:08:33;;;;;;;7.88;4.32;;;;;;;15.43;34.46;101104.25;4892097;28;123849;-64
2021/04/27 08:11:00;;;;;;;5.25;3.38;;;;;;;15.57;33.93;101106.91;4888339;28;114538;-65
2021/04/27 08:13:27;;;;;;;6.95;3.60;;;;;;;15.69;33.42;101106.16;4914088;28;114266;-65
2021/04/27 08:15:54;;;;;;;6.63;4.00;;;;;;;15.79;33.23;101100.28;4892953;28;123145;-63
2021/04/27 08:18:21;;;;;;;8.18;3.85;;;;;;;15.88;32.77;101105.91;4906334;28;123985;-63
2021/04/27 08:20:49;;;;;;;7.60;3.65;;;;;;;15.96;33.03;101105.41;4896340;28;113141;-63
2021/04/27 08:23:17;;;;;;;6.03;3.50;;;;;;;16.06;32.74;101098.50;4879296;28;113381;-63
2021/04/27 08:25:59;;;;;;;6.63;3.92;;;;;;;16.19;33.17;101103.09;4892934;28;123337;-62
2021/04/27 08:28:26;;;;;;;7.55;3.70;;;;;;;16.33;32.91;101106.59;4910647;28;123672;-63
2021/04/27 08:30:53;;;;;;;6.15;3.85;;;;;;;16.41;32.15;101103.41;4911443;28;114214;-63
2021/04/27 08:33:20;;;;;;;6.28;3.50;;;;;;;16.46;31.58;101106.66;4894610;28;114072;-63
2021/04/27 08:35:47;;;;;;;8.50;3.97;;;;;;;16.51;31.58;101109.84;4910069;28;124348;-62
2021/04/27 08:38:14;;;;;;;7.45;3.90;;;;;;;16.57;31.68;101099.72;4910436;28;123945;-62
2021/04/27 08:40:42;;;;;;;6.22;3.67;;;;;;;16.67;31.71;101106.16;4879916;28;113355;-62
2021/04/27 08:43:09;;;;;;;7.00;4.13;;;;;;;16.78;31.00;101100.94;4890425;28;114699;-61
2021/04/27 08:45:39;;;;;;;5.95;3.80;;;;;;;16.79;30.47;101093.81;4906140;28;124146;-62
2021/04/27 08:48:12;;;;;;;10.25;3.80;;;;;;;16.78;30.99;101095.59;4902438;28;124437;-62
2021/04/27 08:50:40;;;;;;;6.03;4.05;;;;;;;16.83;30.70;101104.22;4908206;28;115280;-62
2021/04/27 08:53:08;;;;;;;10.25;4.25;;;;;;;16.87;30.97;101099.50;4910038;28;115105;-63
2021/04/27 08:55:35;;;;;;;6.97;3.80;;;;;;;16.93;30.70;101094.63;4883528;28;123782;-63
2021/04/27 08:58:11;;;;;;;7.43;3.95;;;;;;;17.02;30.86;101093.13;4915058;28;123718;-62
2021/04/27 09:00:38;;;;;;;;;;;;;;;17.06;31.47;101089.25;4914407;28;114695;-62
2021/04/27 09:03:08;;;;;;;7.78;3.72;;;;;;;17.11;30.33;101097.00;4888784;28;114698;-62
2021/04/27 09:05:41;;;;;;;10.45;4.60;;;;;;;17.15;30.14;101093.13;4913923;28;124304;-63
2021/04/27 09:08:37;;;;;;;12.65;4.30;;;;;;;17.19;30.13;101089.28;4899455;28;123621;-62
2021/04/27 09:11:29;;;;;;;11.27;4.50;;;;;;;17.27;30.36;101086.94;4904067;28;114379;-62
2021/04/27 09:14:19;;;;;;;10.85;4.15;;;;;;;17.32;29.07;101095.50;4902332;28;114415;-62
2021/04/27 09:16:55;;;;;;;8.68;4.30;;;;;;;17.30;29.35;101081.38;4897373;28;124268;-63
2021/04/27 09:19:31;;;;;;;7.40;4.13;;;;;;;17.34;29.29;101086.53;4908802;28;124011;-65
2021/04/27 09:22:10;;;;;;;9.40;4.07;;;;;;;17.41;29.70;101087.81;4900114;28;113404;-65
2021/04/27 09:24:41;;;;;;;9.20;3.97;;;;;;;17.50;29.21;101081.81;4905555;28;114624;-65
2021/04/27 09:27:10;;;;;;;9.55;4.72;;;;;;;17.55;28.55;101085.00;4914819;28;124351;-64
2021/04/27 09:29:43;;;;;;;8.15;4.25;;;;;;;17.54;27.64;101077.06;4895581;28;124228;-65
2021/04/27 09:32:10;;;;;;;6.88;3.97;;;;;;;17.55;27.98;101078.78;4913026;28;114647;-65
2021/04/27 09:34:39;;;;;;;7.97;4.53;;;;;;;17.57;27.77;101077.72;4910213;28;113979;-65
2021/04/27 09:37:11;;;;;;;9.80;4.50;;;;;;;17.56;27.29;101070.66;4910480;28;125007;-65
2021/04/27 09:39:48;;;;;;;8.07;4.32;;;;;;;17.56;27.34;101065.31;4913295;28;124004;-64
2021/04/27 09:42:20;;;;;;;7.03;4.57;;;;;;;17.60;27.93;101060.59;4886915;28;115668;-62
2021/04/27 09:44:55;;;;;;;6.40;4.40;;;;;;;17.71;28.48;101074.06;4912232;28;114854;-62
2021/04/27 09:47:29;;;;;;;5.53;3.92;;;;;;;17.85;28.20;101065.06;4911349;23;124557;-70
2021/04/27 09:50:03;;;;;;;6.95;4.38;;;;;;;17.97;27.77;101058.81;4896522;28;124171;-71
2021/04/27 09:52:45;;;;;;;7.75;4.57;;;;;;;18.08;27.90;101050.84;4879089;28;113719;-71
2021/04/27 09:55:22;;;;;;;6.85;4.30;;;;;;;18.21;27.88;101033.84;4901117;28;113082;-70
2021/04/27 09:57:54;;;;;;;7.18;4.57;;;;;;;18.32;27.81;101036.59;4899693;28;124023;-71
2021/04/27 10:00:27;;;;;;;7.07;4.25;;;;;;;18.43;27.55;101027.75;4893841;28;122847;-70
2021/04/27 10:02:56;;;;;;;9.45;4.43;;;;;;;18.54;27.43;101029.63;4911703;28;114640;-71
2021/04/27 10:05:23;;;;;;;10.27;4.80;;;;;;;18.62;27.29;101028.06;4875881;28;113386;-70
2021/04/27 10:07:51;;;;;;;13.25;4.60;;;;;;;18.69;27.53;101017.72;4886925;28;123783;-71
2021/04/27 10:10:19;;;;;;;8.43;4.40;;;;;;;18.78;26.78;101026.88;4885086;28;124563;-70
2021/04/27 10:12:50;;;;;;;7.35;4.45;;;;;;;18.83;26.69;101019.38;4881299;28;114331;-71
2021/04/27 10:15:17;;;;;;;7.45;4.22;;;;;;;18.85;26.57;101015.63;4886022;28;114474;-71
2021/04/27 10:17:44;;;;;;;9.85;4.90;;;;;;;18.85;25.78;101018.31;4910105;28;124838;-71
2021/04/27 10:20:13;;;;;;;7.70;4.50;;;;;;;18.77;25.81;101015.28;4907258;28;123921;-72
2021/04/27 10:22:42;;;;;;;6.93;4.20;;;;;;;18.74;25.83;101010.19;4892869;28;114138;-70
2021/04/27 10:25:16;;;;;;;7.18;4.13;;;;;;;18.74;25.21;101012.88;4890692;28;113726;-71
2021/04/27 10:27:43;;;;;;;7.35;4.30;;;;;;;18.75;26.12;101006.50;4890051;28;125015;-70
2021/04/27 10:30:16;;;;;;;4.88;3.75;;;;;;;18.76;25.56;100997.50;4892952;28;123984;-70
2021/04/27 10:33:06;;;;;;;6.78;4.35;;;;;;;18.82;26.11;100986.31;4907222;28;115476;-70
2021/04/27 10:35:35;;;;;;;6.60;4.30;;;;;;;18.91;25.83;101000.00;4903200;28;114569;-70
2021/04/27 10:38:07;;;;;;;8.30;4.25;;;;;;;18.94;25.08;100992.56;4907210;28;123230;-70
2021/04/27 10:40:40;;;;;;;7.28;3.88;;;;;;;18.95;24.82;100996.09;4905885;28;122824;-70
2021/04/27 10:43:29;;;;;;;5.45;4.10;;;;;;;18.91;24.93;100991.94;4893908;28;114176;-70
2021/04/27 10:46:00;;;;;;;7.47;3.97;;;;;;;18.93;24.55;100987.31;4909385;28;114169;-71
2021/04/27 10:48:30;;;;;;;6.93;4.40;;;;;;;18.97;24.78;100994.16;4886052;28;123034;-70
2021/04/27 10:51:19;;;;;;;12.15;4.20;;;;;;;19.05;24.91;100986.34;4909152;28;123882;-70
2021/04/27 10:54:06;;;;;;;5.93;4.40;;;;;;;19.15;25.45;100987.31;4898568;28;113415;-70
2021/04/27 10:56:36;;;;;;;8.48;3.80;;;;;;;19.31;25.73;100978.03;4906733;28;113961;-70
2021/04/27 10:59:08;;;;;;;11.85;4.22;;;;;;;19.48;25.39;100982.94;4886869;28;124743;-70
2021/04/27 11:01:37;;;;;;;7.30;3.72;;;;;;;19.59;24.61;100974.88;4886649;28;124050;-70
2021/04/27 11:04:04;;;;;;;6.68;4.00;;;;;;;19.61;25.04;100972.06;4894193;28;115341;-70
2021/04/27 11:06:31;;;;;;;6.10;3.70;;;;;;;19.71;25.08;100974.84;4897771;28;113906;-70
2021/04/27 11:09:10;;;;;;;7.15;3.90;;;;;;;19.82;24.44;100969.47;4893396;28;124547;-71
2021/04/27 11:11:37;;;;;;;5.65;3.90;;;;;;;19.85;23.85;100963.84;4877498;28;124853;-70
2021/04/27 11:14:20;;;;;;;7.50;3.83;;;;;;;19.81;23.26;100957.00;4907652;28;114355;-71
2021/04/27 11:16:53;;;;;;;7.15;3.65;;;;;;;19.71;23.03;100961.41;4882720;28;114605;-71
2021/04/27 11:19:24;;;;;;;6.18;3.65;;;;;;;19.65;23.86;100966.31;4892777;28;124001;-71
2021/04/27 11:21:53;;;;;;;8.02;3.83;;;;;;;19.65;23.59;100958.25;4881789;28;123895;-71
2021/04/27 11:24:35;;;;;;;7.65;4.22;;;;;;;19.61;23.52;100955.94;4894464;28;115238;-71
2021/04/27 11:27:02;;;;;;;5.15;3.72;;;;;;;19.61;23.46;100951.41;4894818;28;115576;-71
2021/04/27 11:29:31;;;;;;;6.60;3.42;;;;;;;19.61;23.02;100948.72;4892525;28;124033;-71
2021/04/27 11:32:12;;;;;;;7.38;3.85;;;;;;;19.57;23.43;100949.97;4890155;28;123341;-71
2021/04/27 11:34:47;;;;;;;6.38;3.95;;;;;;;19.61;23.37;100947.88;4905688;28;114073;-71
2021/04/27 11:37:24;;;;;;;6.38;3.90;;;;;;;19.65;23.41;100955.56;4892717;28;113681;-71
2021/04/27 11:39:52;;;;;;;5.25;3.42;;;;;;;19.69;23.15;100952.63;4903355;28;124412;-71